createdAt,value
2017-12-08T00:00:59.544Z,5.40
2017-12-08T00:03:29.215Z,5.40
2017-12-08T00:05:58.861Z,5.40
2017-12-08T00:08:28.546Z,5.40
2017-12-08T00:10:58.190Z,5.40
2017-12-08T00:13:28.666Z,5.40
2017-12-08T00:15:58.316Z,5.40
2017-12-08T00:18:27.992Z,5.40
2017-12-08T00:20:59.893Z,5.50
2017-12-08T00:23:29.581Z,5.50
2017-12-08T00:25:59.232Z,5.50
2017-12-08T00:28:29.662Z,5.50
2017-12-08T00:30:59.330Z,5.40
2017-12-08T00:33:29.011Z,5.40
2017-12-08T00:35:58.650Z,5.40
2017-12-08T00:38:28.338Z,5.50
2017-12-08T00:40:57.997Z,5.40
2017-12-08T00:43:28.256Z,5.50
2017-12-08T00:45:57.887Z,5.40
2017-12-08T00:48:27.582Z,5.40
2017-12-08T00:50:57.218Z,5.40
2017-12-08T00:53:26.886Z,5.40
2017-12-08T00:55:56.538Z,5.40
2017-12-08T00:58:26.214Z,5.40
2017-12-08T01:00:55.857Z,5.40
2017-12-08T01:03:25.526Z,5.40
2017-12-08T01:05:55.212Z,5.40
2017-12-08T01:08:25.672Z,5.40
2017-12-08T01:10:55.317Z,5.40
2017-12-08T01:13:24.985Z,5.40
2017-12-08T01:15:54.671Z,5.40
2017-12-08T01:18:24.348Z,5.40
2017-12-08T01:20:54.035Z,5.40
2017-12-08T01:23:23.693Z,5.40
2017-12-08T01:25:54.158Z,5.50
2017-12-08T01:28:23.798Z,5.40
2017-12-08T01:30:53.470Z,5.50
2017-12-08T01:33:23.135Z,5.50
2017-12-08T01:35:52.805Z,5.50
2017-12-08T01:38:22.452Z,5.50
2017-12-08T01:40:52.180Z,5.60
2017-12-08T01:43:22.577Z,5.60
2017-12-08T01:45:52.322Z,5.60
2017-12-08T01:48:21.978Z,5.70
2017-12-08T01:50:51.653Z,5.70
2017-12-08T01:53:21.158Z,5.70
2017-12-08T01:55:50.802Z,5.70
2017-12-08T01:58:20.497Z,5.70
2017-12-08T02:00:50.145Z,5.70
2017-12-08T02:03:19.645Z,5.70
2017-12-08T02:05:49.290Z,5.70
2017-12-08T02:08:18.963Z,5.70
2017-12-08T02:10:48.322Z,5.80
2017-12-08T02:13:17.977Z,5.80
2017-12-08T02:15:48.833Z,5.80
2017-12-08T02:18:19.247Z,5.70
2017-12-08T02:20:49.038Z,5.80
2017-12-08T02:23:17.826Z,5.70
2017-12-08T02:25:46.655Z,5.80
2017-12-08T02:28:15.470Z,5.80
2017-12-08T02:30:44.465Z,5.80
2017-12-08T02:33:14.150Z,5.80
2017-12-08T02:35:44.580Z,5.90
2017-12-08T02:38:15.032Z,5.90
2017-12-08T02:40:44.518Z,5.90
2017-12-08T02:43:14.178Z,5.90
2017-12-08T02:45:43.873Z,5.90
2017-12-08T02:48:13.337Z,5.90
2017-12-08T02:50:42.358Z,5.90
2017-12-08T02:53:11.815Z,5.90
2017-12-08T02:55:41.489Z,5.90
2017-12-08T02:58:11.179Z,5.90
2017-12-08T03:00:40.173Z,5.90
2017-12-08T03:03:09.830Z,5.90
2017-12-08T03:05:39.514Z,5.90
2017-12-08T03:08:09.012Z,6.00
2017-12-08T03:10:38.669Z,6.00
2017-12-08T03:13:09.118Z,6.00
2017-12-08T03:15:38.437Z,6.00
2017-12-08T03:18:08.130Z,6.00
2017-12-08T03:20:37.757Z,6.00
2017-12-08T03:23:07.475Z,6.00
2017-12-08T03:25:37.150Z,6.00
2017-12-08T03:28:07.726Z,6.00
2017-12-08T03:30:37.386Z,6.00
2017-12-08T03:33:07.785Z,6.00
2017-12-08T03:35:37.202Z,6.00
2017-12-08T03:38:06.843Z,6.00
2017-12-08T03:40:35.852Z,6.00
2017-12-08T03:43:05.499Z,6.00
2017-12-08T03:45:35.186Z,6.00
2017-12-08T03:48:04.833Z,6.00
2017-12-08T03:50:33.985Z,6.00
2017-12-08T03:53:03.637Z,6.00
2017-12-08T03:55:33.300Z,6.00
2017-12-08T03:58:02.959Z,6.10
2017-12-08T04:00:32.263Z,6.00
2017-12-08T04:03:02.498Z,6.00
2017-12-08T04:05:32.898Z,6.00
2017-12-08T04:08:02.578Z,6.00
2017-12-08T04:10:32.246Z,6.00
2017-12-08T04:13:02.688Z,6.00
2017-12-08T04:15:32.330Z,6.00
2017-12-08T04:18:02.005Z,6.00
2017-12-08T04:20:31.709Z,6.00
2017-12-08T04:23:02.106Z,6.00
2017-12-08T04:25:31.855Z,6.00
2017-12-08T04:28:01.544Z,6.00
2017-12-08T04:30:31.615Z,5.90
2017-12-08T04:33:01.312Z,5.90
2017-12-08T04:35:30.945Z,5.90
2017-12-08T04:38:00.058Z,5.90
2017-12-08T04:40:29.678Z,5.90
2017-12-08T04:42:59.366Z,5.90
2017-12-08T04:45:28.679Z,5.80
2017-12-08T04:47:58.345Z,5.90
2017-12-08T04:50:27.674Z,5.90
2017-12-08T04:52:57.305Z,5.80
2017-12-08T04:55:26.982Z,5.80
2017-12-08T04:57:56.654Z,5.90
2017-12-08T05:00:25.625Z,5.80
2017-12-08T05:02:55.090Z,5.90
2017-12-08T05:05:24.738Z,5.80
2017-12-08T05:07:54.423Z,5.80
2017-12-08T05:10:24.061Z,5.80
2017-12-08T05:12:54.501Z,5.70
2017-12-08T05:15:24.902Z,5.70
2017-12-08T05:17:54.591Z,5.60
2017-12-08T05:20:23.617Z,5.70
2017-12-08T05:22:52.587Z,5.60
2017-12-08T05:25:22.251Z,5.60
2017-12-08T05:27:51.886Z,5.60
2017-12-08T05:30:21.545Z,5.60
2017-12-08T05:32:51.962Z,5.60
2017-12-08T05:35:22.414Z,5.60
2017-12-08T05:37:52.074Z,5.60
2017-12-08T05:40:21.749Z,5.60
2017-12-08T05:42:51.054Z,5.60
2017-12-08T05:45:20.901Z,5.60
2017-12-08T05:47:50.580Z,5.60
2017-12-08T05:50:20.231Z,5.60
2017-12-08T05:52:49.220Z,5.60
2017-12-08T05:55:18.909Z,5.50
2017-12-08T05:57:48.548Z,5.50
2017-12-08T06:00:17.884Z,5.60
2017-12-08T06:02:46.915Z,5.50
2017-12-08T06:05:16.387Z,5.50
2017-12-08T06:07:46.030Z,5.60
2017-12-08T06:10:15.706Z,5.50
2017-12-08T06:12:45.349Z,5.50
2017-12-08T06:15:15.032Z,5.50
2017-12-08T06:17:44.737Z,5.50
2017-12-08T06:20:14.073Z,5.60
2017-12-08T06:22:43.398Z,5.60
2017-12-08T06:25:13.825Z,5.70
2017-12-08T06:27:43.491Z,5.70
2017-12-08T06:30:13.212Z,5.70
2017-12-08T06:32:42.875Z,5.70
2017-12-08T06:35:12.512Z,5.70
2017-12-08T06:37:42.186Z,5.80
2017-12-08T06:40:12.603Z,5.80
2017-12-08T06:42:42.277Z,5.80
2017-12-08T06:45:11.977Z,5.80
2017-12-08T06:47:41.640Z,5.80
2017-12-08T06:50:12.090Z,5.80
2017-12-08T06:52:41.776Z,5.80
2017-12-08T06:55:12.230Z,5.70
2017-12-08T06:57:41.696Z,5.70
2017-12-08T07:00:11.206Z,5.70
2017-12-08T07:02:40.860Z,5.60
2017-12-08T07:05:10.552Z,5.60
2017-12-08T07:07:40.959Z,5.60
2017-12-08T07:10:11.930Z,5.60
2017-12-08T07:12:40.723Z,5.60
2017-12-08T07:15:10.385Z,5.60
2017-12-08T07:17:43.303Z,5.60
2017-12-08T07:20:13.714Z,5.60
2017-12-08T07:22:43.476Z,5.60
2017-12-08T07:25:13.102Z,5.60
2017-12-08T07:27:42.786Z,5.50
2017-12-08T07:30:13.194Z,5.30
2017-12-08T07:32:43.647Z,5.30
2017-12-08T07:35:12.641Z,5.30
2017-12-08T07:37:42.269Z,5.20
2017-12-08T07:40:11.965Z,5.20
2017-12-08T07:42:41.595Z,5.20
2017-12-08T07:45:10.895Z,5.10
2017-12-08T07:47:40.037Z,5.10
2017-12-08T07:50:10.107Z,5.00
2017-12-08T07:52:39.816Z,5.00
2017-12-08T07:55:09.499Z,5.00
2017-12-08T07:57:38.537Z,5.00
2017-12-08T08:00:08.205Z,5.00
2017-12-08T08:02:37.673Z,5.00
2017-12-08T08:05:07.333Z,5.00
2017-12-08T08:07:36.982Z,5.10
2017-12-08T08:10:06.692Z,5.10
2017-12-08T08:12:36.362Z,5.10
2017-12-08T08:15:05.711Z,5.20
2017-12-08T08:17:34.506Z,5.20
2017-12-08T08:20:04.783Z,5.30
2017-12-08T08:22:34.428Z,5.30
2017-12-08T08:25:03.741Z,5.30
2017-12-08T08:27:33.406Z,5.40
2017-12-08T08:30:02.726Z,5.50
2017-12-08T08:32:32.061Z,5.50
2017-12-08T08:35:01.702Z,5.50
2017-12-08T08:37:31.478Z,5.50
2017-12-08T08:40:01.926Z,5.70
2017-12-08T08:42:32.403Z,5.70
2017-12-08T08:45:01.708Z,5.70
2017-12-08T08:47:31.457Z,5.80
2017-12-08T08:50:01.177Z,5.80
2017-12-08T08:52:31.587Z,6.00
2017-12-08T08:55:00.958Z,6.00
2017-12-08T08:57:30.614Z,6.10
2017-12-08T09:00:00.321Z,6.10
2017-12-08T09:02:30.777Z,6.10
2017-12-08T09:05:00.506Z,6.10
2017-12-08T09:07:30.201Z,6.30
2017-12-08T09:09:59.552Z,6.20
2017-12-08T09:12:29.231Z,6.10
2017-12-08T09:14:58.959Z,6.20
2017-12-08T09:17:28.596Z,6.30
2017-12-08T09:19:59.042Z,6.10
2017-12-08T09:22:29.490Z,6.10
2017-12-08T09:24:58.838Z,6.00
2017-12-08T09:27:30.014Z,6.00
2017-12-08T09:30:00.435Z,6.10
2017-12-08T09:32:30.888Z,6.10
2017-12-08T09:35:00.530Z,6.10
2017-12-08T09:37:30.212Z,6.20
2017-12-08T09:39:59.903Z,6.20
2017-12-08T09:42:29.586Z,6.30
2017-12-08T09:44:59.261Z,6.40
2017-12-08T09:47:28.996Z,6.50
2017-12-08T09:49:58.829Z,6.60
2017-12-08T09:52:29.285Z,6.80
2017-12-08T09:54:58.945Z,6.70
2017-12-08T09:57:28.670Z,6.70
2017-12-08T09:59:58.912Z,6.60
2017-12-08T10:02:29.424Z,6.60
2017-12-08T10:04:59.814Z,6.60
2017-12-08T10:07:29.490Z,6.60
2017-12-08T10:09:59.246Z,6.60
2017-12-08T10:12:28.884Z,6.70
2017-12-08T10:14:59.122Z,6.50
2017-12-08T10:17:28.811Z,6.50
2017-12-08T10:19:58.446Z,6.50
2017-12-08T10:22:27.445Z,6.40
2017-12-08T10:24:57.141Z,6.40
2017-12-08T10:27:27.570Z,6.40
2017-12-08T10:29:58.010Z,6.30
2017-12-08T10:32:27.462Z,6.30
2017-12-08T10:34:56.805Z,6.20
2017-12-08T10:37:26.535Z,6.30
2017-12-08T10:39:56.157Z,6.30
2017-12-08T10:42:25.844Z,6.10
2017-12-08T10:44:55.806Z,6.10
2017-12-08T10:47:25.504Z,6.10
2017-12-08T10:49:54.830Z,6.20
2017-12-08T10:52:26.083Z,6.20
2017-12-08T10:54:55.735Z,6.10
2017-12-08T10:57:25.423Z,6.10
2017-12-08T10:59:55.854Z,5.90
2017-12-08T11:02:25.486Z,5.90
2017-12-08T11:04:54.826Z,5.90
2017-12-08T11:07:24.453Z,6.10
2017-12-08T11:09:54.898Z,6.30
2017-12-08T11:12:25.358Z,6.30
2017-12-08T11:14:55.004Z,6.30
2017-12-08T11:17:24.676Z,6.30
2017-12-08T11:19:54.327Z,6.40
2017-12-08T11:22:23.661Z,6.50
2017-12-08T11:24:53.338Z,6.30
2017-12-08T11:27:23.046Z,6.10
2017-12-08T11:29:52.707Z,6.00
2017-12-08T11:32:22.360Z,5.90
2017-12-08T11:34:52.076Z,5.90
2017-12-08T11:37:22.541Z,5.90
2017-12-08T11:39:52.951Z,5.80
2017-12-08T11:42:24.840Z,5.80
2017-12-08T11:44:55.740Z,5.80
2017-12-08T11:47:25.426Z,5.80
2017-12-08T11:49:55.126Z,5.80
2017-12-08T11:52:24.764Z,5.80
2017-12-08T11:54:54.066Z,5.80
2017-12-08T11:57:23.737Z,5.80
2017-12-08T11:59:53.380Z,5.80
2017-12-08T12:02:23.054Z,5.90
2017-12-08T12:04:52.791Z,5.90
2017-12-08T12:07:22.468Z,6.00
2017-12-08T12:09:52.165Z,6.40
2017-12-08T12:12:21.933Z,6.40
2017-12-08T12:14:51.672Z,6.20
2017-12-08T12:17:22.124Z,6.10
2017-12-08T12:19:51.793Z,6.00
2017-12-08T12:22:22.228Z,6.20
2017-12-08T12:24:52.682Z,6.00
2017-12-08T12:27:22.326Z,6.00
2017-12-08T12:29:52.075Z,6.00
2017-12-08T12:32:22.529Z,6.50
2017-12-08T12:34:52.165Z,6.40
2017-12-08T12:37:21.835Z,6.80
2017-12-08T12:39:51.521Z,7.30
2017-12-08T12:42:21.218Z,7.70
2017-12-08T12:44:50.902Z,7.80
2017-12-08T12:47:20.596Z,7.70
2017-12-08T12:49:50.232Z,7.50
2017-12-08T12:52:19.595Z,7.00
2017-12-08T12:54:48.967Z,6.60
2017-12-08T12:57:19.452Z,6.20
2017-12-08T12:59:49.114Z,6.10
2017-12-08T13:02:19.600Z,6.00
2017-12-08T13:04:49.248Z,6.00
2017-12-08T13:07:18.921Z,5.90
2017-12-08T13:09:48.611Z,5.90
2017-12-08T13:12:18.490Z,5.80
2017-12-08T13:14:48.898Z,5.70
2017-12-08T13:17:18.566Z,5.70
2017-12-08T13:19:48.262Z,5.70
2017-12-08T13:22:18.174Z,5.70
2017-12-08T13:24:47.875Z,5.70
2017-12-08T13:27:17.683Z,5.60
2017-12-08T13:29:48.095Z,5.70
2017-12-08T13:32:17.767Z,5.60
2017-12-08T13:34:47.433Z,5.60
2017-12-08T13:37:17.068Z,5.70
2017-12-08T13:39:46.734Z,5.80
2017-12-08T13:42:17.182Z,6.00
2017-12-08T13:44:46.870Z,6.00
2017-12-08T13:47:17.314Z,6.10
2017-12-08T13:49:48.361Z,6.10
2017-12-08T13:52:18.019Z,6.10
2017-12-08T13:55:00.502Z,6.40
2017-12-08T13:57:30.002Z,6.40
2017-12-08T13:59:59.679Z,6.60
2017-12-08T14:02:30.087Z,6.30
2017-12-08T14:05:00.326Z,6.10
2017-12-08T14:07:30.124Z,6.00
2017-12-08T14:09:59.272Z,6.00
2017-12-08T14:12:28.942Z,6.00
2017-12-08T14:14:59.191Z,5.80
2017-12-08T14:17:28.808Z,5.80
2017-12-08T14:19:58.500Z,5.60
2017-12-08T14:22:28.135Z,5.60
2017-12-08T14:24:57.817Z,5.50
2017-12-08T14:27:27.453Z,5.50
2017-12-08T14:29:57.130Z,5.40
2017-12-08T14:32:27.550Z,5.30
2017-12-08T14:34:58.002Z,5.20
2017-12-08T14:37:27.471Z,5.20
2017-12-08T14:39:57.941Z,5.10
2017-12-08T14:42:27.569Z,5.10
2017-12-08T14:44:57.250Z,5.00
2017-12-08T14:47:26.915Z,5.00
2017-12-08T14:49:56.578Z,4.90
2017-12-08T14:52:26.244Z,4.90
2017-12-08T14:54:56.675Z,4.80
2017-12-08T14:57:27.145Z,4.80
2017-12-08T14:59:56.791Z,4.80
2017-12-08T15:02:26.453Z,4.80
2017-12-08T15:04:56.105Z,4.70
2017-12-08T15:07:25.762Z,4.70
2017-12-08T15:09:55.405Z,4.60
2017-12-08T15:12:24.745Z,4.60
2017-12-08T15:14:54.813Z,4.50
2017-12-08T15:17:24.142Z,4.50
2017-12-08T15:19:53.847Z,4.40
2017-12-08T15:22:23.473Z,4.40
2017-12-08T15:24:53.247Z,4.40
2017-12-08T15:27:22.910Z,4.40
2017-12-08T15:29:53.297Z,4.40
2017-12-08T15:32:22.967Z,4.40
2017-12-08T15:34:53.031Z,4.40
2017-12-08T15:37:22.370Z,4.40
2017-12-08T15:39:52.786Z,4.40
2017-12-08T15:42:21.778Z,4.40
2017-12-08T15:44:51.471Z,4.40
2017-12-08T15:47:21.106Z,4.40
2017-12-08T15:49:51.554Z,4.40
2017-12-08T15:52:20.535Z,4.40
2017-12-08T15:54:49.685Z,4.40
2017-12-08T15:57:19.613Z,4.50
2017-12-08T15:59:49.242Z,4.50
2017-12-08T16:02:19.103Z,4.40
2017-12-08T16:04:48.767Z,4.30
2017-12-08T16:07:18.429Z,4.00
2017-12-08T16:09:48.070Z,3.50
2017-12-08T16:12:17.749Z,3.20
2017-12-08T16:14:47.463Z,3.00
2017-12-08T16:17:17.099Z,2.60
2017-12-08T16:19:46.778Z,2.50
2017-12-08T16:22:16.418Z,2.40
2017-12-08T16:24:46.080Z,2.30
2017-12-08T16:27:15.744Z,2.20
2017-12-08T16:29:45.431Z,2.20
2017-12-08T16:32:15.057Z,2.20
2017-12-08T16:34:44.729Z,2.20
2017-12-08T16:37:14.410Z,2.20
2017-12-08T16:39:44.133Z,2.20
2017-12-08T16:42:13.589Z,2.20
2017-12-08T16:44:43.223Z,2.20
2017-12-08T16:47:12.887Z,2.20
2017-12-08T16:49:42.565Z,2.20
2017-12-08T16:52:12.255Z,2.10
2017-12-08T16:54:41.702Z,2.00
2017-12-08T16:57:11.390Z,2.00
2017-12-08T16:59:41.060Z,1.90
2017-12-08T17:02:10.691Z,1.90
2017-12-08T17:04:40.366Z,1.80
2017-12-08T17:07:10.191Z,1.80
2017-12-08T17:09:39.839Z,1.80
2017-12-08T17:12:09.509Z,1.80
2017-12-08T17:14:39.929Z,1.90
2017-12-08T17:17:08.940Z,1.90
2017-12-08T17:19:38.687Z,2.00
2017-12-08T17:22:08.174Z,1.90
2017-12-08T17:24:37.919Z,2.00
2017-12-08T17:27:06.918Z,1.90
2017-12-08T17:29:36.424Z,1.90
2017-12-08T17:32:05.811Z,2.00
2017-12-08T17:34:35.106Z,2.00
2017-12-08T17:37:04.765Z,1.90
2017-12-08T17:39:34.395Z,2.00
2017-12-08T17:42:04.835Z,2.00
2017-12-08T17:44:35.254Z,2.00
2017-12-08T17:47:05.650Z,2.00
2017-12-08T17:49:35.318Z,2.10
2017-12-08T17:52:05.015Z,2.10
2017-12-08T17:54:34.681Z,2.10
2017-12-08T17:57:04.400Z,2.10
2017-12-08T17:59:33.914Z,2.10
2017-12-08T18:02:04.001Z,2.20
2017-12-08T18:04:33.668Z,2.20
2017-12-08T18:07:03.030Z,2.20
2017-12-08T18:09:33.499Z,2.20
2017-12-08T18:12:02.473Z,2.20
2017-12-08T18:14:31.669Z,2.20
2017-12-08T18:17:01.442Z,2.20
2017-12-08T18:19:30.221Z,2.20
2017-12-08T18:21:59.914Z,2.30
2017-12-08T18:24:29.545Z,2.30
2017-12-08T18:26:59.225Z,2.40
2017-12-08T18:29:28.528Z,2.40
2017-12-08T18:31:58.161Z,2.40
2017-12-08T18:34:27.826Z,2.40
2017-12-08T18:36:57.884Z,2.40
2017-12-08T18:39:27.562Z,2.40
2017-12-08T18:41:57.203Z,2.50
2017-12-08T18:44:26.302Z,2.50
2017-12-08T18:46:55.963Z,2.50
2017-12-08T18:49:26.374Z,2.50
2017-12-08T18:51:56.030Z,2.50
2017-12-08T18:54:25.679Z,2.50
2017-12-08T18:56:55.215Z,2.50
2017-12-08T18:59:25.607Z,2.50
2017-12-08T19:01:56.801Z,2.40
2017-12-08T19:04:26.437Z,2.40
2017-12-08T19:06:55.553Z,2.40
2017-12-08T19:09:25.247Z,2.40
2017-12-08T19:11:54.878Z,2.40
2017-12-08T19:14:24.170Z,2.40
2017-12-08T19:16:53.843Z,2.40
2017-12-08T19:19:23.491Z,2.40
2017-12-08T19:21:52.826Z,2.40
2017-12-08T19:24:22.604Z,2.40
2017-12-08T19:26:52.094Z,2.40
2017-12-08T19:29:21.770Z,2.30
2017-12-08T19:31:51.438Z,2.30
2017-12-08T19:34:21.124Z,2.30
2017-12-08T19:36:50.270Z,2.30
2017-12-08T19:39:20.677Z,2.30
2017-12-08T19:41:50.345Z,2.30
2017-12-08T19:44:19.990Z,2.20
2017-12-08T19:46:49.665Z,2.20
2017-12-08T19:49:19.337Z,2.20
2017-12-08T19:51:49.022Z,2.20
2017-12-08T19:54:18.670Z,2.20
2017-12-08T19:56:48.342Z,2.30
2017-12-08T19:59:18.791Z,2.30
2017-12-08T20:01:49.242Z,2.30
2017-12-08T20:04:18.920Z,2.30
2017-12-08T20:06:48.288Z,2.40
2017-12-08T20:09:17.976Z,2.50
2017-12-08T20:11:47.627Z,2.50
2017-12-08T20:14:17.321Z,2.50
2017-12-08T20:16:46.990Z,2.50
2017-12-08T20:19:16.653Z,2.50
2017-12-08T20:21:45.664Z,2.50
2017-12-08T20:24:16.117Z,2.60
2017-12-08T20:26:45.260Z,2.60
2017-12-08T20:29:14.937Z,2.70
2017-12-08T20:31:44.614Z,2.70
2017-12-08T20:34:15.015Z,2.70
2017-12-08T20:36:44.708Z,2.70
2017-12-08T20:39:14.351Z,2.70
2017-12-08T20:41:44.797Z,2.70
2017-12-08T20:44:14.450Z,2.70
2017-12-08T20:46:44.212Z,2.70
2017-12-08T20:49:14.167Z,2.80
2017-12-08T20:51:43.730Z,2.80
2017-12-08T20:54:14.146Z,2.70
2017-12-08T20:56:44.574Z,2.70
2017-12-08T20:59:14.214Z,2.70
2017-12-08T21:01:43.897Z,2.80
2017-12-08T21:04:14.352Z,2.80
2017-12-08T21:06:44.032Z,2.80
2017-12-08T21:09:14.433Z,2.80
2017-12-08T21:11:44.153Z,2.80
2017-12-08T21:14:13.838Z,2.90
2017-12-08T21:16:43.454Z,2.90
2017-12-08T21:19:13.124Z,2.90
2017-12-08T21:21:42.825Z,2.90
2017-12-08T21:24:13.356Z,2.90
2017-12-08T21:26:43.139Z,2.90
2017-12-08T21:29:12.780Z,2.80
2017-12-08T21:31:42.458Z,2.90
2017-12-08T21:34:12.154Z,2.90
2017-12-08T21:36:41.854Z,2.90
2017-12-08T21:39:11.542Z,2.90
2017-12-08T21:41:41.211Z,2.90
2017-12-08T21:44:11.660Z,2.80
2017-12-08T21:46:41.306Z,2.80
2017-12-08T21:49:11.003Z,2.80
2017-12-08T21:51:40.632Z,2.90
2017-12-08T21:54:10.324Z,2.90
2017-12-08T21:56:39.965Z,2.90
2017-12-08T21:59:09.270Z,2.80
2017-12-08T22:01:38.946Z,2.80
2017-12-08T22:04:08.606Z,2.80
2017-12-08T22:06:39.034Z,2.80
2017-12-08T22:09:08.335Z,2.80
2017-12-08T22:11:39.638Z,2.80
2017-12-08T22:14:09.298Z,2.80
2017-12-08T22:16:39.021Z,2.80
2017-12-08T22:19:08.699Z,2.80
2017-12-08T22:21:38.326Z,2.70
2017-12-08T22:24:08.766Z,2.60
2017-12-08T22:26:38.427Z,2.60
2017-12-08T22:29:08.064Z,2.60
2017-12-08T22:31:38.509Z,2.50
2017-12-08T22:34:08.938Z,2.50
2017-12-08T22:36:38.568Z,2.50
2017-12-08T22:39:08.257Z,2.40
2017-12-08T22:41:37.925Z,2.40
2017-12-08T22:44:07.594Z,2.40
2017-12-08T22:46:36.905Z,2.30
2017-12-08T22:49:06.545Z,2.30
2017-12-08T22:51:35.574Z,2.30
2017-12-08T22:54:05.965Z,2.20
2017-12-08T22:56:35.626Z,2.20
2017-12-08T22:59:05.262Z,2.20
2017-12-08T23:01:34.578Z,2.10
2017-12-08T23:04:04.047Z,2.10
2017-12-08T23:06:33.725Z,2.00
2017-12-08T23:09:03.307Z,2.00
2017-12-08T23:11:32.949Z,1.90
2017-12-08T23:14:02.642Z,1.90
2017-12-08T23:16:32.542Z,1.90
2017-12-08T23:19:02.211Z,1.80
2017-12-08T23:21:31.596Z,1.80
2017-12-08T23:24:01.220Z,1.80
2017-12-08T23:26:30.960Z,1.80
2017-12-08T23:29:00.600Z,1.70
2017-12-08T23:31:31.068Z,1.70
2017-12-08T23:34:00.726Z,1.70
2017-12-08T23:36:31.173Z,1.60
2017-12-08T23:39:00.915Z,1.60
2017-12-08T23:41:30.538Z,1.60
2017-12-08T23:44:00.217Z,1.50
2017-12-08T23:46:29.853Z,1.50
2017-12-08T23:48:59.518Z,1.50
2017-12-08T23:51:29.169Z,1.40
2017-12-08T23:53:58.868Z,1.40
2017-12-08T23:56:29.266Z,1.40
2017-12-08T23:58:58.946Z,1.30
